createdAt,value
2022-11-18T00:01:21.780Z,12.02
2022-11-18T00:03:50.915Z,12.60
2022-11-18T00:06:22.235Z,11.48
2022-11-18T00:08:50.697Z,12.40
2022-11-18T00:11:42.784Z,12.68
2022-11-18T00:14:25.071Z,12.82
2022-11-18T00:16:58.485Z,12.15
2022-11-18T00:21:55.804Z,12.75
2022-11-18T00:24:24.256Z,12.90
2022-11-18T00:26:51.909Z,13.10
2022-11-18T00:29:20.337Z,12.63
2022-11-18T00:31:48.601Z,13.65
2022-11-18T00:34:18.172Z,12.25
2022-11-18T00:36:47.051Z,13.18
2022-11-18T00:39:17.442Z,13.30
2022-11-18T00:42:04.940Z,12.75
2022-11-18T00:44:33.161Z,13.20
2022-11-18T00:47:00.847Z,12.75
2022-11-18T00:49:28.823Z,14.18
2022-11-18T00:51:56.471Z,13.60
2022-11-18T00:54:24.365Z,13.30
2022-11-18T00:56:51.971Z,13.80
2022-11-18T00:59:20.329Z,14.23
2022-11-18T01:01:49.094Z,13.13
2022-11-18T01:04:17.649Z,13.52
2022-11-18T01:06:45.446Z,14.52
2022-11-18T01:09:13.349Z,14.30
2022-11-18T01:11:59.737Z,14.60
2022-11-18T01:14:27.667Z,14.93
2022-11-18T01:16:56.972Z,14.75
2022-11-18T01:19:25.424Z,15.25
2022-11-18T01:21:53.751Z,14.93
2022-11-18T01:24:21.643Z,15.60
2022-11-18T01:26:49.261Z,15.73
2022-11-18T01:29:18.267Z,15.77
2022-11-18T01:32:09.258Z,15.05
2022-11-18T01:34:34.014Z,14.32
2022-11-18T01:37:01.610Z,15.35
2022-11-18T01:39:29.592Z,14.80
2022-11-18T01:41:57.204Z,16.02
2022-11-18T01:44:58.391Z,15.20
2022-11-18T01:47:33.752Z,15.15
2022-11-18T01:50:01.906Z,14.95
2022-11-18T01:52:31.062Z,16.00
2022-11-18T01:55:05.353Z,16.08
2022-11-18T01:57:33.223Z,15.95
2022-11-18T02:00:05.177Z,15.90
2022-11-18T02:02:36.484Z,16.02
2022-11-18T02:05:07.564Z,15.80
2022-11-18T02:07:39.010Z,16.40
2022-11-18T02:10:08.011Z,15.95
2022-11-18T02:12:37.358Z,16.05
2022-11-18T02:15:05.744Z,16.70
2022-11-18T02:18:06.290Z,15.63
2022-11-18T02:20:45.930Z,16.70
2022-11-18T02:23:35.076Z,15.90
2022-11-18T02:26:21.423Z,17.35
2022-11-18T02:29:10.537Z,17.55
2022-11-18T02:31:44.280Z,17.77
2022-11-18T02:34:28.362Z,18.08
2022-11-18T02:37:05.006Z,18.17
2022-11-18T02:42:46.772Z,17.55
2022-11-18T02:45:18.436Z,18.38
2022-11-18T02:47:49.791Z,18.35
2022-11-18T02:50:23.570Z,19.10
2022-11-18T02:52:58.706Z,18.45
2022-11-18T02:55:29.889Z,18.88
2022-11-18T02:57:58.761Z,19.08
2022-11-18T03:00:26.789Z,19.52
2022-11-18T03:02:54.471Z,18.98
2022-11-18T03:05:22.315Z,19.05
2022-11-18T03:07:55.892Z,19.55
2022-11-18T03:13:14.504Z,17.92
2022-11-18T03:16:05.995Z,18.30
2022-11-18T03:18:54.328Z,18.42
2022-11-18T03:21:28.876Z,18.40
2022-11-18T03:24:23.171Z,18.10
2022-11-18T03:27:05.893Z,17.52
2022-11-18T03:29:40.272Z,17.77
2022-11-18T03:32:32.818Z,17.13
2022-11-18T03:35:07.954Z,17.65
2022-11-18T03:37:38.405Z,17.05
2022-11-18T03:40:22.759Z,16.60
2022-11-18T03:42:56.823Z,17.40
2022-11-18T03:45:39.533Z,16.45
2022-11-18T03:48:16.455Z,15.95
2022-11-18T03:50:56.932Z,16.20
2022-11-18T03:53:27.843Z,16.08
2022-11-18T03:56:03.419Z,16.48
2022-11-18T03:58:47.602Z,15.38
2022-11-18T04:01:35.309Z,15.02
2022-11-18T04:04:03.428Z,14.90
2022-11-18T04:06:42.232Z,14.93
2022-11-18T04:09:15.549Z,14.50
2022-11-18T04:12:05.111Z,15.30
2022-11-18T04:14:35.972Z,15.30
2022-11-18T04:17:27.849Z,15.15
2022-11-18T04:19:56.099Z,16.05
2022-11-18T04:22:23.729Z,15.85
2022-11-18T04:24:51.716Z,16.02
2022-11-18T04:27:19.749Z,16.00
2022-11-18T04:29:47.651Z,16.88
2022-11-18T04:32:15.347Z,15.00
2022-11-18T04:34:43.306Z,16.23
2022-11-18T04:37:10.919Z,14.60
2022-11-18T04:39:38.898Z,14.52
2022-11-18T04:42:06.661Z,15.27
2022-11-18T04:44:35.442Z,15.32
2022-11-18T04:47:05.333Z,15.63
2022-11-18T04:49:34.469Z,15.50
2022-11-18T04:52:03.016Z,15.18
2022-11-18T04:54:31.350Z,15.30
2022-11-18T04:56:59.306Z,15.18
2022-11-18T04:59:29.854Z,14.30
2022-11-18T05:01:58.382Z,14.70
2022-11-18T05:04:30.238Z,14.10
2022-11-18T05:06:58.818Z,14.10
2022-11-18T05:09:31.778Z,12.63
2022-11-18T05:12:19.935Z,13.00
2022-11-18T05:14:50.621Z,13.70
2022-11-18T05:17:19.869Z,14.32
2022-11-18T05:19:47.917Z,13.30
2022-11-18T05:22:16.019Z,14.48
2022-11-18T05:24:44.016Z,15.10
2022-11-18T05:27:12.593Z,14.70
2022-11-18T05:29:40.517Z,14.10
2022-11-18T05:32:08.591Z,13.63
2022-11-18T05:34:36.621Z,12.73
2022-11-18T05:37:04.512Z,14.27
2022-11-18T05:39:34.960Z,12.38
2022-11-18T05:42:21.508Z,12.75
2022-11-18T05:44:56.384Z,12.07
2022-11-18T05:47:25.549Z,12.15
2022-11-18T05:49:53.491Z,12.05
2022-11-18T05:52:21.142Z,11.43
2022-11-18T05:54:51.042Z,12.13
2022-11-18T05:57:18.794Z,12.02
2022-11-18T05:59:46.746Z,10.82
2022-11-18T06:02:24.703Z,10.23
2022-11-18T06:05:02.808Z,11.02
2022-11-18T06:07:39.673Z,11.73
2022-11-18T06:10:12.919Z,10.00
2022-11-18T06:12:45.796Z,8.93
2022-11-18T06:15:22.960Z,8.20
2022-11-18T06:18:03.945Z,9.40
2022-11-18T06:20:35.388Z,8.57
2022-11-18T06:23:03.076Z,14.35
2022-11-18T06:25:31.516Z,14.25
2022-11-18T06:28:02.450Z,13.18
2022-11-18T06:30:30.420Z,8.70
2022-11-18T06:32:58.151Z,8.57
2022-11-18T06:35:26.067Z,8.73
2022-11-18T06:37:53.742Z,8.48
2022-11-18T06:40:21.688Z,8.60
2022-11-18T06:43:08.064Z,9.02
2022-11-18T06:45:36.327Z,9.00
2022-11-18T06:48:04.336Z,9.85
2022-11-18T06:50:32.444Z,10.43
2022-11-18T06:53:02.900Z,10.15
2022-11-18T06:55:30.872Z,11.73
2022-11-18T06:57:58.584Z,11.13
2022-11-18T07:00:26.516Z,9.45
2022-11-18T07:02:54.158Z,10.50
2022-11-18T07:05:22.137Z,10.80
2022-11-18T07:07:49.818Z,10.70
2022-11-18T07:10:17.836Z,10.45
2022-11-18T07:12:45.476Z,10.43
2022-11-18T07:15:13.845Z,10.75
2022-11-18T07:17:41.509Z,9.95
2022-11-18T07:20:10.002Z,10.65
2022-11-18T07:22:37.713Z,9.88
2022-11-18T07:25:06.013Z,10.48
2022-11-18T07:27:33.651Z,10.15
2022-11-18T07:30:01.624Z,10.68
2022-11-18T07:32:29.414Z,10.00
2022-11-18T07:34:57.707Z,10.75
2022-11-18T07:37:25.435Z,10.60
2022-11-18T07:39:53.366Z,10.07
2022-11-18T07:42:21.120Z,10.43
2022-11-18T07:44:49.135Z,10.48
2022-11-18T07:47:16.803Z,10.05
2022-11-18T07:49:44.746Z,9.32
2022-11-18T07:52:12.519Z,9.40
2022-11-18T07:54:40.476Z,9.48
2022-11-18T07:57:08.148Z,9.90
2022-11-18T07:59:36.089Z,9.70
2022-11-18T08:02:03.896Z,8.55
2022-11-18T08:04:32.067Z,9.90
2022-11-18T08:06:59.773Z,8.73
2022-11-18T08:09:27.669Z,8.90
2022-11-18T08:11:55.381Z,7.93
2022-11-18T08:14:24.281Z,8.52
2022-11-18T08:16:52.040Z,8.50
2022-11-18T08:19:20.185Z,7.65
2022-11-18T08:21:48.090Z,8.18
2022-11-18T08:24:16.047Z,7.95
2022-11-18T08:26:43.760Z,10.18
2022-11-18T08:29:11.717Z,7.97
2022-11-18T08:31:39.415Z,7.88
2022-11-18T08:34:07.884Z,7.45
2022-11-18T08:36:37.898Z,8.15
2022-11-18T08:39:08.927Z,6.97
2022-11-18T08:41:39.867Z,8.02
2022-11-18T08:44:11.724Z,8.02
2022-11-18T08:46:39.742Z,9.32
2022-11-18T08:49:07.773Z,10.13
2022-11-18T08:51:35.416Z,8.40
2022-11-18T08:54:03.484Z,8.48
2022-11-18T08:56:31.549Z,7.65
2022-11-18T08:58:59.597Z,8.98
2022-11-18T09:01:27.731Z,8.27
2022-11-18T09:03:57.674Z,10.30
2022-11-18T09:06:25.593Z,7.97
2022-11-18T09:08:54.072Z,7.22
2022-11-18T09:11:24.761Z,6.55
2022-11-18T09:16:43.967Z,7.35
2022-11-18T09:19:40.002Z,8.73
2022-11-18T09:22:00.213Z,6.88
2022-11-18T09:24:28.455Z,7.35
2022-11-18T09:26:56.426Z,7.32
2022-11-18T09:29:26.487Z,6.43
2022-11-18T09:31:55.470Z,6.95
2022-11-18T09:34:23.612Z,6.22
2022-11-18T09:36:55.822Z,7.47
2022-11-18T09:39:25.373Z,7.95
2022-11-18T09:41:53.317Z,8.15
2022-11-18T09:44:58.633Z,7.15
2022-11-18T09:47:35.291Z,7.97
2022-11-18T09:50:47.443Z,7.07
2022-11-18T09:53:24.814Z,7.15
2022-11-18T09:55:54.681Z,7.45
2022-11-18T09:58:28.067Z,8.95
2022-11-18T10:00:55.751Z,6.95
2022-11-18T10:03:30.354Z,7.05
2022-11-18T10:06:15.986Z,6.75
2022-11-18T10:09:13.723Z,7.00
2022-11-18T10:11:52.787Z,7.68
2022-11-18T10:14:30.390Z,7.05
2022-11-18T10:17:10.713Z,6.72
2022-11-18T10:20:11.543Z,7.10
2022-11-18T10:22:46.380Z,5.20
2022-11-18T10:25:17.622Z,7.13
2022-11-18T10:27:47.278Z,7.57
2022-11-18T10:30:24.827Z,7.88
2022-11-18T10:33:03.034Z,6.22
2022-11-18T10:35:36.928Z,6.35
2022-11-18T10:38:18.663Z,6.32
2022-11-18T10:41:05.587Z,6.85
2022-11-18T10:43:53.236Z,6.65
2022-11-18T10:46:33.760Z,7.07
2022-11-18T10:49:10.628Z,5.97
2022-11-18T10:51:41.878Z,6.38
2022-11-18T10:54:17.506Z,7.13
2022-11-18T10:56:57.795Z,7.38
2022-11-18T10:59:38.841Z,7.15
2022-11-18T11:02:31.458Z,7.22
2022-11-18T11:05:04.756Z,7.32
2022-11-18T11:07:36.010Z,7.43
2022-11-18T11:10:06.633Z,6.72
2022-11-18T11:12:49.100Z,8.60
2022-11-18T11:15:28.938Z,6.63
2022-11-18T11:18:38.538Z,6.93
2022-11-18T11:21:19.462Z,6.47
2022-11-18T11:23:47.685Z,6.40
2022-11-18T11:29:14.247Z,6.70
2022-11-18T11:31:53.777Z,6.50
2022-11-18T11:34:47.397Z,7.38
2022-11-18T11:37:34.836Z,7.88
2022-11-18T11:40:14.959Z,6.78
2022-11-18T11:42:45.717Z,7.72
2022-11-18T11:45:44.718Z,6.93
2022-11-18T11:48:48.733Z,6.32
2022-11-18T11:51:29.487Z,7.07
2022-11-18T11:54:18.008Z,6.60
2022-11-18T11:56:57.301Z,7.95
2022-11-18T11:59:57.627Z,6.47
2022-11-18T12:03:04.176Z,7.53
2022-11-18T12:05:39.400Z,7.53
2022-11-18T12:08:14.368Z,7.70
2022-11-18T12:11:07.385Z,7.50
2022-11-18T12:13:45.317Z,6.75
2022-11-18T12:16:28.337Z,7.85
2022-11-18T12:19:31.699Z,7.82
2022-11-18T12:22:03.904Z,7.40
2022-11-18T12:24:39.976Z,8.13
2022-11-18T12:27:09.807Z,6.65
2022-11-18T12:29:50.380Z,7.18
2022-11-18T12:32:30.526Z,7.32
2022-11-18T12:35:13.388Z,7.38
2022-11-18T12:37:52.963Z,6.43
2022-11-18T12:40:33.603Z,7.00
2022-11-18T12:43:20.788Z,8.25
2022-11-18T12:45:51.403Z,8.13
2022-11-18T12:48:28.098Z,8.30
2022-11-18T12:50:58.376Z,8.77
2022-11-18T12:53:44.476Z,9.45
2022-11-18T12:56:18.537Z,7.90
2022-11-18T13:01:18.750Z,7.38
2022-11-18T13:03:46.737Z,8.45
2022-11-18T13:06:31.366Z,7.50
2022-11-18T13:09:05.141Z,9.80
2022-11-18T13:11:45.206Z,8.23
2022-11-18T13:14:47.404Z,7.57
2022-11-18T13:17:43.096Z,8.93
2022-11-18T13:20:24.805Z,7.70
2022-11-18T13:23:14.335Z,8.20
2022-11-18T13:25:45.496Z,8.38
2022-11-18T13:28:19.264Z,6.90
2022-11-18T13:30:59.696Z,7.78
2022-11-18T13:33:27.860Z,7.57
2022-11-18T13:35:55.707Z,7.88
2022-11-18T13:38:28.435Z,9.15
2022-11-18T13:41:07.127Z,9.60
2022-11-18T13:43:36.211Z,8.90
2022-11-18T13:46:16.777Z,8.88
2022-11-18T13:48:55.551Z,9.00
2022-11-18T13:51:24.781Z,8.75
2022-11-18T13:53:52.931Z,7.70
2022-11-18T13:56:33.394Z,8.23
2022-11-18T13:59:16.763Z,8.00
2022-11-18T14:01:46.941Z,9.50
2022-11-18T14:04:25.539Z,9.00
2022-11-18T14:06:53.331Z,10.70
2022-11-18T14:09:25.672Z,10.13
2022-11-18T14:15:40.544Z,10.18
2022-11-18T14:18:35.084Z,10.75
2022-11-18T14:21:05.114Z,9.85
2022-11-18T14:23:36.259Z,10.10
2022-11-18T14:26:07.164Z,10.10
2022-11-18T14:28:38.844Z,10.13
2022-11-18T14:31:24.605Z,11.23
2022-11-18T14:34:18.337Z,14.18
2022-11-18T14:36:47.104Z,13.10
2022-11-18T14:39:30.970Z,11.55
2022-11-18T14:42:00.186Z,12.48
2022-11-18T14:44:28.857Z,9.73
2022-11-18T14:47:26.161Z,11.85
2022-11-18T14:49:53.972Z,12.68
2022-11-18T14:52:22.021Z,13.27
2022-11-18T14:54:49.671Z,12.25
2022-11-18T14:57:19.080Z,13.43
2022-11-18T14:59:46.887Z,13.43
2022-11-18T15:02:19.129Z,13.48
2022-11-18T15:04:48.392Z,12.15
2022-11-18T15:07:23.384Z,10.88
2022-11-18T15:09:51.810Z,11.75
2022-11-18T15:12:19.789Z,12.77
2022-11-18T15:14:47.469Z,11.70
2022-11-18T15:17:15.404Z,9.20
2022-11-18T15:19:43.076Z,9.68
2022-11-18T15:22:11.019Z,7.85
2022-11-18T15:24:38.639Z,9.18
2022-11-18T15:27:09.159Z,9.70
2022-11-18T15:29:36.827Z,9.45
2022-11-18T15:32:05.366Z,9.73
2022-11-18T15:34:33.114Z,9.30
2022-11-18T15:37:01.071Z,10.13
2022-11-18T15:39:28.777Z,9.13
2022-11-18T15:41:56.718Z,8.55
2022-11-18T15:44:24.931Z,8.75
2022-11-18T15:46:52.805Z,7.88
2022-11-18T15:49:20.541Z,9.60
2022-11-18T15:51:48.847Z,9.85
2022-11-18T15:54:16.977Z,9.27
2022-11-18T15:56:45.502Z,9.52
2022-11-18T15:59:14.805Z,8.10
2022-11-18T16:01:45.908Z,8.20
2022-11-18T16:04:17.524Z,8.00
2022-11-18T16:06:46.413Z,9.45
2022-11-18T16:09:15.794Z,9.65
2022-11-18T16:12:03.014Z,8.80
2022-11-18T16:14:30.705Z,8.40
2022-11-18T16:16:59.043Z,9.73
2022-11-18T16:19:28.735Z,10.15
2022-11-18T16:21:57.366Z,9.93
2022-11-18T16:24:27.714Z,10.63
2022-11-18T16:26:56.314Z,13.00
2022-11-18T16:29:25.170Z,10.75
2022-11-18T16:31:54.383Z,10.52
2022-11-18T16:34:25.372Z,10.13
2022-11-18T16:36:55.671Z,10.48
2022-11-18T16:39:26.286Z,12.82
2022-11-18T16:41:59.449Z,10.82
2022-11-18T16:44:30.175Z,10.35
2022-11-18T16:46:58.810Z,10.80
2022-11-18T16:49:27.965Z,10.60
2022-11-18T16:51:57.153Z,11.35
2022-11-18T16:54:26.980Z,11.63
2022-11-18T16:56:57.266Z,10.50
2022-11-18T16:59:28.374Z,11.68
2022-11-18T17:01:58.384Z,10.35
2022-11-18T17:04:28.196Z,10.70
2022-11-18T17:06:56.764Z,11.02
2022-11-18T17:09:25.456Z,10.98
2022-11-18T17:11:55.518Z,11.30
2022-11-18T17:14:24.457Z,10.77
2022-11-18T17:16:53.280Z,11.10
2022-11-18T17:19:23.906Z,11.20
2022-11-18T17:21:53.232Z,10.05
2022-11-18T17:24:23.226Z,11.43
2022-11-18T17:26:52.242Z,10.50
2022-11-18T17:29:20.729Z,10.68
2022-11-18T17:31:49.464Z,10.27
2022-11-18T17:34:17.728Z,10.27
2022-11-18T17:36:46.047Z,9.85
2022-11-18T17:39:13.967Z,10.40
2022-11-18T17:42:00.511Z,9.30
2022-11-18T17:44:29.729Z,10.32
2022-11-18T17:46:57.714Z,11.35
2022-11-18T17:49:25.537Z,11.45
2022-11-18T17:51:53.626Z,9.18
2022-11-18T17:54:21.840Z,10.93
2022-11-18T17:56:52.299Z,9.77
2022-11-18T17:59:21.425Z,10.85
2022-11-18T18:01:54.177Z,11.68
2022-11-18T18:04:25.419Z,10.15
2022-11-18T18:06:53.594Z,10.25
2022-11-18T18:09:30.011Z,10.75
2022-11-18T18:11:59.951Z,11.63
2022-11-18T18:14:27.673Z,11.07
2022-11-18T18:16:55.639Z,11.30
2022-11-18T18:19:24.227Z,11.73
2022-11-18T18:21:53.424Z,12.02
2022-11-18T18:24:22.006Z,12.45
2022-11-18T18:26:50.254Z,12.30
2022-11-18T18:29:21.493Z,11.48
2022-11-18T18:31:49.453Z,12.93
2022-11-18T18:34:17.845Z,11.93
2022-11-18T18:36:46.032Z,12.82
2022-11-18T18:39:13.773Z,12.18
2022-11-18T18:41:41.761Z,12.35
2022-11-18T18:44:13.719Z,11.25
2022-11-18T18:46:44.960Z,12.20
2022-11-18T18:49:15.726Z,10.40
2022-11-18T18:51:45.675Z,10.77
2022-11-18T18:54:16.072Z,11.00
2022-11-18T18:56:44.625Z,11.80
2022-11-18T18:59:12.500Z,10.65
2022-11-18T19:01:41.146Z,10.75
2022-11-18T19:04:11.309Z,10.73
2022-11-18T19:06:51.974Z,11.07
2022-11-18T19:09:25.025Z,8.88
2022-11-18T19:12:12.587Z,8.70
2022-11-18T19:14:40.516Z,9.60
2022-11-18T19:17:11.804Z,11.10
2022-11-18T19:20:00.619Z,8.82
2022-11-18T19:22:33.187Z,8.75
2022-11-18T19:25:01.556Z,8.70
2022-11-18T19:27:30.293Z,9.30
2022-11-18T19:29:58.400Z,9.13
2022-11-18T19:32:26.436Z,8.88
2022-11-18T19:34:54.238Z,9.50
2022-11-18T19:37:22.660Z,9.32
2022-11-18T19:39:50.349Z,11.05
2022-11-18T19:42:18.293Z,10.23
2022-11-18T19:44:46.498Z,11.07
2022-11-18T19:47:14.448Z,12.18
2022-11-18T19:49:42.218Z,10.55
2022-11-18T19:52:10.173Z,10.68
2022-11-18T19:54:39.296Z,10.80
2022-11-18T19:57:08.044Z,10.90
2022-11-18T19:59:35.820Z,10.30
2022-11-18T20:02:04.070Z,10.38
2022-11-18T20:04:31.810Z,11.00
2022-11-18T20:06:59.937Z,10.00
2022-11-18T20:09:27.678Z,10.82
2022-11-18T20:11:55.771Z,12.10
2022-11-18T20:14:23.488Z,11.55
2022-11-18T20:16:54.274Z,12.38
2022-11-18T20:19:22.256Z,12.90
2022-11-18T20:21:50.534Z,11.75
2022-11-18T20:24:19.189Z,12.95
2022-11-18T20:26:47.502Z,11.25
2022-11-18T20:29:15.367Z,12.35
2022-11-18T20:31:43.353Z,12.57
2022-11-18T20:34:14.447Z,12.77
2022-11-18T20:36:43.063Z,12.80
2022-11-18T20:39:17.894Z,13.52
2022-11-18T20:42:04.746Z,13.95
2022-11-18T20:44:32.475Z,12.00
2022-11-18T20:47:00.705Z,12.02
2022-11-18T20:49:28.397Z,13.00
2022-11-18T20:51:56.413Z,12.27
2022-11-18T20:54:24.042Z,12.48
2022-11-18T20:56:52.011Z,11.93
2022-11-18T20:59:19.963Z,12.50
2022-11-18T21:01:48.956Z,12.63
2022-11-18T21:04:16.707Z,12.23
2022-11-18T21:06:45.405Z,12.65
2022-11-18T21:09:14.194Z,12.38
2022-11-18T21:11:42.189Z,12.90
2022-11-18T21:14:24.399Z,13.02
2022-11-18T21:16:55.535Z,12.13
2022-11-18T21:19:23.968Z,12.55
2022-11-18T21:21:52.835Z,13.02
2022-11-18T21:24:32.265Z,12.35
2022-11-18T21:27:01.836Z,11.57
2022-11-18T21:29:31.517Z,13.40
2022-11-18T21:32:03.212Z,13.45
2022-11-18T21:34:31.357Z,13.63
2022-11-18T21:36:59.392Z,12.73
2022-11-18T21:39:27.530Z,13.25
2022-11-18T21:41:57.244Z,13.90
2022-11-18T21:44:28.524Z,13.05
2022-11-18T21:46:57.609Z,13.48
2022-11-18T21:49:25.467Z,13.52
2022-11-18T21:51:53.523Z,14.20
2022-11-18T21:54:21.268Z,13.75
2022-11-18T21:56:49.384Z,13.52
2022-11-18T21:59:17.666Z,15.30
2022-11-18T22:01:45.999Z,13.23
2022-11-18T22:04:33.784Z,12.50
2022-11-18T22:07:02.056Z,12.80
2022-11-18T22:09:34.827Z,14.18
2022-11-18T22:12:05.783Z,13.75
2022-11-18T22:14:33.693Z,14.02
2022-11-18T22:17:01.656Z,13.35
2022-11-18T22:19:29.711Z,13.80
2022-11-18T22:21:57.658Z,14.25
2022-11-18T22:24:25.764Z,13.30
2022-11-18T22:26:53.743Z,13.98
2022-11-18T22:29:21.637Z,13.40
2022-11-18T22:31:49.718Z,13.57
2022-11-18T22:34:17.436Z,13.48
2022-11-18T22:36:45.478Z,14.18
2022-11-18T22:39:13.241Z,13.43
2022-11-18T22:41:59.839Z,14.20
2022-11-18T22:44:27.591Z,14.45
2022-11-18T22:46:55.692Z,14.32
2022-11-18T22:49:23.441Z,14.52
2022-11-18T22:51:51.416Z,13.10
2022-11-18T22:57:07.608Z,13.77
2022-11-18T22:59:35.558Z,15.00
2022-11-18T23:02:04.158Z,14.43
2022-11-18T23:04:32.089Z,15.23
2022-11-18T23:07:00.265Z,14.95
2022-11-18T23:09:28.237Z,13.93
2022-11-18T23:12:14.983Z,14.85
2022-11-18T23:14:42.857Z,14.82
2022-11-18T23:17:10.836Z,15.15
2022-11-18T23:19:43.600Z,15.20
2022-11-18T23:22:12.526Z,12.70
2022-11-18T23:24:40.366Z,14.23
2022-11-18T23:27:08.519Z,14.32
2022-11-18T23:29:36.263Z,14.57
2022-11-18T23:32:04.791Z,14.07
2022-11-18T23:34:32.752Z,14.45
2022-11-18T23:37:00.685Z,14.40
2022-11-18T23:39:28.460Z,14.10
2022-11-18T23:41:56.441Z,12.70
2022-11-18T23:44:44.199Z,13.23
2022-11-18T23:47:13.002Z,13.77
2022-11-18T23:49:40.767Z,12.77
2022-11-18T23:52:08.842Z,14.77
2022-11-18T23:54:36.647Z,14.05
2022-11-18T23:57:05.473Z,14.52
2022-11-18T23:59:33.643Z,13.95
